Tyrone, Georgia
Current Conditions -  °F | °C
As of 12:53 AM on Saturday 29 Nov 2014 (Local Time) from KFFC Reporting Station
Clear Clear  
Wind Chill: 28°   Ceiling: Unl
Heat Index: 28°   Visibility: 8mi
Dew Point: 25°   Wind: 0mph
Humidity: 88%   Direction: NA
Pressure: 30.27"   Gusts: NA
Location:  33.47°N, 84.6°W
Report Text: KFFC 290553Z AUTO 00000KT 8SM CLR M02/M04 A3027 RMK AO2 SLP258 T10221039 10022 21022 58008
Loading
Personal Weather Stations






























Interactive Weather Map New forecast layout! Learn more

10-Day Weather Forecast

Advertisements
Track Severe Weather on mobile